sensor_id;sensor_type;location;lat;lon;timestamp;P1;durP1;ratioP1;P2;durP2;ratioP2
19207;SDS011;9737;59.466;18.036;2022-12-18T00:00:04;39.58;;;13.70;;
19207;SDS011;9737;59.466;18.036;2022-12-18T00:02:33;36.35;;;12.80;;
19207;SDS011;9737;59.466;18.036;2022-12-18T00:05:01;32.03;;;12.98;;
19207;SDS011;9737;59.466;18.036;2022-12-18T00:07:29;31.27;;;13.45;;
19207;SDS011;9737;59.466;18.036;2022-12-18T00:09:57;30.67;;;12.88;;
19207;SDS011;9737;59.466;18.036;2022-12-18T00:12:25;32.78;;;14.07;;
19207;SDS011;9737;59.466;18.036;2022-12-18T00:14:56;37.45;;;13.32;;
19207;SDS011;9737;59.466;18.036;2022-12-18T00:17:25;33.40;;;13.07;;
19207;SDS011;9737;59.466;18.036;2022-12-18T00:19:53;28.92;;;13.50;;
19207;SDS011;9737;59.466;18.036;2022-12-18T00:22:21;38.88;;;13.82;;
19207;SDS011;9737;59.466;18.036;2022-12-18T00:24:49;26.55;;;12.60;;
19207;SDS011;9737;59.466;18.036;2022-12-18T00:27:17;35.05;;;12.98;;
19207;SDS011;9737;59.466;18.036;2022-12-18T00:29:47;33.63;;;13.93;;
19207;SDS011;9737;59.466;18.036;2022-12-18T00:32:15;36.20;;;14.23;;
19207;SDS011;9737;59.466;18.036;2022-12-18T00:34:45;30.23;;;12.98;;
19207;SDS011;9737;59.466;18.036;2022-12-18T00:37:14;40.90;;;13.27;;
19207;SDS011;9737;59.466;18.036;2022-12-18T00:39:47;32.22;;;12.75;;
19207;SDS011;9737;59.466;18.036;2022-12-18T00:42:16;32.13;;;13.25;;
19207;SDS011;9737;59.466;18.036;2022-12-18T00:45:01;33.95;;;12.80;;
19207;SDS011;9737;59.466;18.036;2022-12-18T00:47:37;30.05;;;12.07;;
19207;SDS011;9737;59.466;18.036;2022-12-18T00:50:09;36.70;;;13.82;;
19207;SDS011;9737;59.466;18.036;2022-12-18T00:52:38;37.00;;;13.10;;
19207;SDS011;9737;59.466;18.036;2022-12-18T00:55:07;38.20;;;13.45;;
19207;SDS011;9737;59.466;18.036;2022-12-18T00:57:36;32.38;;;12.70;;
19207;SDS011;9737;59.466;18.036;2022-12-18T01:00:07;35.55;;;12.75;;
19207;SDS011;9737;59.466;18.036;2022-12-18T01:02:37;31.42;;;12.95;;
19207;SDS011;9737;59.466;18.036;2022-12-18T01:05:06;34.28;;;12.93;;
19207;SDS011;9737;59.466;18.036;2022-12-18T01:07:37;29.38;;;13.07;;
19207;SDS011;9737;59.466;18.036;2022-12-18T01:10:06;27.50;;;12.38;;
19207;SDS011;9737;59.466;18.036;2022-12-18T01:12:35;31.45;;;12.20;;
19207;SDS011;9737;59.466;18.036;2022-12-18T01:15:03;32.50;;;12.85;;
19207;SDS011;9737;59.466;18.036;2022-12-18T01:17:34;26.02;;;12.68;;
19207;SDS011;9737;59.466;18.036;2022-12-18T01:20:02;34.08;;;13.23;;
19207;SDS011;9737;59.466;18.036;2022-12-18T01:22:33;31.38;;;12.35;;
19207;SDS011;9737;59.466;18.036;2022-12-18T01:25:01;32.47;;;13.38;;
19207;SDS011;9737;59.466;18.036;2022-12-18T01:27:30;32.90;;;13.05;;
19207;SDS011;9737;59.466;18.036;2022-12-18T01:29:58;31.88;;;12.32;;
19207;SDS011;9737;59.466;18.036;2022-12-18T01:32:28;27.95;;;11.82;;
19207;SDS011;9737;59.466;18.036;2022-12-18T01:34:57;34.47;;;14.10;;
19207;SDS011;9737;59.466;18.036;2022-12-18T01:37:25;30.40;;;13.00;;
19207;SDS011;9737;59.466;18.036;2022-12-18T01:39:55;33.72;;;12.93;;
19207;SDS011;9737;59.466;18.036;2022-12-18T01:42:23;29.17;;;12.88;;
19207;SDS011;9737;59.466;18.036;2022-12-18T01:44:56;24.58;;;12.02;;
19207;SDS011;9737;59.466;18.036;2022-12-18T01:47:28;28.30;;;12.27;;
19207;SDS011;9737;59.466;18.036;2022-12-18T01:50:03;27.65;;;12.45;;
19207;SDS011;9737;59.466;18.036;2022-12-18T01:52:36;28.63;;;12.35;;
19207;SDS011;9737;59.466;18.036;2022-12-18T01:55:07;32.05;;;11.90;;
19207;SDS011;9737;59.466;18.036;2022-12-18T01:57:36;28.33;;;12.38;;
19207;SDS011;9737;59.466;18.036;2022-12-18T02:00:06;34.92;;;13.40;;
19207;SDS011;9737;59.466;18.036;2022-12-18T02:02:38;31.15;;;12.70;;
19207;SDS011;9737;59.466;18.036;2022-12-18T02:05:07;26.65;;;11.90;;
19207;SDS011;9737;59.466;18.036;2022-12-18T02:07:38;29.33;;;12.38;;
19207;SDS011;9737;59.466;18.036;2022-12-18T02:10:19;32.65;;;12.25;;
19207;SDS011;9737;59.466;18.036;2022-12-18T02:12:53;35.00;;;12.27;;
19207;SDS011;9737;59.466;18.036;2022-12-18T02:15:30;25.60;;;11.50;;
19207;SDS011;9737;59.466;18.036;2022-12-18T02:18:04;26.65;;;11.95;;
19207;SDS011;9737;59.466;18.036;2022-12-18T02:20:36;31.13;;;12.05;;
19207;SDS011;9737;59.466;18.036;2022-12-18T02:23:12;34.03;;;11.95;;
19207;SDS011;9737;59.466;18.036;2022-12-18T02:26:04;31.33;;;11.70;;
19207;SDS011;9737;59.466;18.036;2022-12-18T02:28:38;36.78;;;12.52;;
19207;SDS011;9737;59.466;18.036;2022-12-18T02:31:10;29.95;;;11.57;;
19207;SDS011;9737;59.466;18.036;2022-12-18T02:33:42;31.92;;;12.35;;
19207;SDS011;9737;59.466;18.036;2022-12-18T02:36:12;28.50;;;12.23;;
19207;SDS011;9737;59.466;18.036;2022-12-18T02:38:42;29.25;;;12.93;;
19207;SDS011;9737;59.466;18.036;2022-12-18T02:41:13;28.15;;;11.82;;
19207;SDS011;9737;59.466;18.036;2022-12-18T02:43:46;27.98;;;11.52;;
19207;SDS011;9737;59.466;18.036;2022-12-18T02:46:25;28.50;;;11.32;;
19207;SDS011;9737;59.466;18.036;2022-12-18T02:49:01;26.85;;;12.30;;
19207;SDS011;9737;59.466;18.036;2022-12-18T02:51:40;29.90;;;12.05;;
19207;SDS011;9737;59.466;18.036;2022-12-18T02:54:21;28.95;;;11.55;;
19207;SDS011;9737;59.466;18.036;2022-12-18T02:57:05;32.63;;;11.65;;
19207;SDS011;9737;59.466;18.036;2022-12-18T02:59:44;31.08;;;11.45;;
19207;SDS011;9737;59.466;18.036;2022-12-18T03:02:21;34.25;;;11.40;;
19207;SDS011;9737;59.466;18.036;2022-12-18T03:04:55;27.83;;;11.48;;
19207;SDS011;9737;59.466;18.036;2022-12-18T03:07:33;36.15;;;12.00;;
19207;SDS011;9737;59.466;18.036;2022-12-18T03:10:05;26.88;;;11.57;;
19207;SDS011;9737;59.466;18.036;2022-12-18T03:12:38;21.58;;;10.48;;
19207;SDS011;9737;59.466;18.036;2022-12-18T03:15:12;28.23;;;11.02;;
19207;SDS011;9737;59.466;18.036;2022-12-18T03:17:44;27.30;;;11.27;;
19207;SDS011;9737;59.466;18.036;2022-12-18T03:20:17;26.27;;;11.90;;
19207;SDS011;9737;59.466;18.036;2022-12-18T03:22:49;22.33;;;10.93;;
19207;SDS011;9737;59.466;18.036;2022-12-18T03:25:21;23.38;;;11.10;;
19207;SDS011;9737;59.466;18.036;2022-12-18T03:27:51;25.52;;;11.13;;
19207;SDS011;9737;59.466;18.036;2022-12-18T03:30:24;25.17;;;11.40;;
19207;SDS011;9737;59.466;18.036;2022-12-18T03:32:58;30.48;;;11.95;;
19207;SDS011;9737;59.466;18.036;2022-12-18T03:35:33;25.42;;;11.07;;
19207;SDS011;9737;59.466;18.036;2022-12-18T03:38:05;22.55;;;10.25;;
19207;SDS011;9737;59.466;18.036;2022-12-18T03:40:35;23.77;;;10.90;;
19207;SDS011;9737;59.466;18.036;2022-12-18T03:43:13;30.23;;;11.43;;
19207;SDS011;9737;59.466;18.036;2022-12-18T03:45:48;26.83;;;10.75;;
19207;SDS011;9737;59.466;18.036;2022-12-18T03:48:21;27.02;;;10.18;;
19207;SDS011;9737;59.466;18.036;2022-12-18T03:50:56;24.20;;;10.27;;
19207;SDS011;9737;59.466;18.036;2022-12-18T03:53:29;26.25;;;10.30;;
19207;SDS011;9737;59.466;18.036;2022-12-18T03:56:05;20.63;;;10.48;;
19207;SDS011;9737;59.466;18.036;2022-12-18T03:58:37;24.02;;;10.77;;
19207;SDS011;9737;59.466;18.036;2022-12-18T04:01:07;22.88;;;9.60;;
19207;SDS011;9737;59.466;18.036;2022-12-18T04:03:40;27.60;;;11.65;;
19207;SDS011;9737;59.466;18.036;2022-12-18T04:06:10;25.27;;;11.02;;
19207;SDS011;9737;59.466;18.036;2022-12-18T04:08:39;31.05;;;11.27;;
19207;SDS011;9737;59.466;18.036;2022-12-18T04:11:08;27.40;;;11.35;;
19207;SDS011;9737;59.466;18.036;2022-12-18T04:13:38;28.38;;;10.65;;
19207;SDS011;9737;59.466;18.036;2022-12-18T04:16:07;28.85;;;11.38;;
19207;SDS011;9737;59.466;18.036;2022-12-18T04:18:35;28.52;;;11.15;;
19207;SDS011;9737;59.466;18.036;2022-12-18T04:21:03;25.50;;;11.05;;
19207;SDS011;9737;59.466;18.036;2022-12-18T04:23:31;18.77;;;9.55;;
19207;SDS011;9737;59.466;18.036;2022-12-18T04:25:59;25.25;;;10.98;;
19207;SDS011;9737;59.466;18.036;2022-12-18T04:28:27;25.15;;;11.48;;
19207;SDS011;9737;59.466;18.036;2022-12-18T04:30:57;26.95;;;11.35;;
19207;SDS011;9737;59.466;18.036;2022-12-18T04:33:25;23.60;;;10.05;;
19207;SDS011;9737;59.466;18.036;2022-12-18T04:35:53;28.50;;;10.88;;
19207;SDS011;9737;59.466;18.036;2022-12-18T04:38:21;26.02;;;10.95;;
19207;SDS011;9737;59.466;18.036;2022-12-18T04:40:49;24.15;;;11.55;;
19207;SDS011;9737;59.466;18.036;2022-12-18T04:43:17;26.33;;;11.02;;
19207;SDS011;9737;59.466;18.036;2022-12-18T04:45:45;25.90;;;11.00;;
19207;SDS011;9737;59.466;18.036;2022-12-18T04:48:15;25.88;;;11.32;;
19207;SDS011;9737;59.466;18.036;2022-12-18T04:50:42;23.42;;;9.73;;
19207;SDS011;9737;59.466;18.036;2022-12-18T04:53:10;26.20;;;9.85;;
19207;SDS011;9737;59.466;18.036;2022-12-18T04:55:38;22.55;;;10.65;;
19207;SDS011;9737;59.466;18.036;2022-12-18T04:58:06;23.35;;;11.43;;
19207;SDS011;9737;59.466;18.036;2022-12-18T05:00:35;24.20;;;10.65;;
19207;SDS011;9737;59.466;18.036;2022-12-18T05:03:03;24.15;;;9.77;;
19207;SDS011;9737;59.466;18.036;2022-12-18T05:05:33;21.90;;;9.20;;
19207;SDS011;9737;59.466;18.036;2022-12-18T05:08:04;20.77;;;9.90;;
19207;SDS011;9737;59.466;18.036;2022-12-18T05:10:32;20.33;;;9.60;;
19207;SDS011;9737;59.466;18.036;2022-12-18T05:13:03;22.13;;;10.18;;
19207;SDS011;9737;59.466;18.036;2022-12-18T05:15:32;24.25;;;10.15;;
19207;SDS011;9737;59.466;18.036;2022-12-18T05:18:00;27.38;;;10.63;;
19207;SDS011;9737;59.466;18.036;2022-12-18T05:20:30;22.80;;;10.50;;
19207;SDS011;9737;59.466;18.036;2022-12-18T05:23:00;21.73;;;9.73;;
19207;SDS011;9737;59.466;18.036;2022-12-18T05:25:28;24.35;;;10.07;;
19207;SDS011;9737;59.466;18.036;2022-12-18T05:27:56;21.17;;;10.40;;
19207;SDS011;9737;59.466;18.036;2022-12-18T05:30:24;24.60;;;9.75;;
19207;SDS011;9737;59.466;18.036;2022-12-18T05:32:52;25.23;;;10.20;;
19207;SDS011;9737;59.466;18.036;2022-12-18T05:35:21;24.60;;;10.05;;
19207;SDS011;9737;59.466;18.036;2022-12-18T05:37:48;21.17;;;10.27;;
19207;SDS011;9737;59.466;18.036;2022-12-18T05:40:18;26.17;;;10.18;;
19207;SDS011;9737;59.466;18.036;2022-12-18T05:42:46;21.92;;;10.10;;
19207;SDS011;9737;59.466;18.036;2022-12-18T05:45:14;24.38;;;10.18;;
19207;SDS011;9737;59.466;18.036;2022-12-18T05:47:41;21.80;;;9.13;;
19207;SDS011;9737;59.466;18.036;2022-12-18T05:50:11;23.50;;;9.65;;
19207;SDS011;9737;59.466;18.036;2022-12-18T05:52:39;24.15;;;9.57;;
19207;SDS011;9737;59.466;18.036;2022-12-18T05:55:07;21.92;;;9.77;;
19207;SDS011;9737;59.466;18.036;2022-12-18T05:57:36;20.48;;;9.73;;
19207;SDS011;9737;59.466;18.036;2022-12-18T06:00:05;22.98;;;10.18;;
19207;SDS011;9737;59.466;18.036;2022-12-18T06:02:33;23.77;;;9.63;;
19207;SDS011;9737;59.466;18.036;2022-12-18T06:05:02;24.20;;;10.13;;
19207;SDS011;9737;59.466;18.036;2022-12-18T06:07:30;27.38;;;10.27;;
19207;SDS011;9737;59.466;18.036;2022-12-18T06:09:58;21.50;;;9.95;;
19207;SDS011;9737;59.466;18.036;2022-12-18T06:12:27;21.75;;;9.88;;
19207;SDS011;9737;59.466;18.036;2022-12-18T06:14:57;25.42;;;11.05;;
19207;SDS011;9737;59.466;18.036;2022-12-18T06:17:27;23.27;;;9.38;;
19207;SDS011;9737;59.466;18.036;2022-12-18T06:19:55;24.23;;;10.18;;
19207;SDS011;9737;59.466;18.036;2022-12-18T06:22:23;24.13;;;9.70;;
19207;SDS011;9737;59.466;18.036;2022-12-18T06:24:51;24.60;;;10.73;;
19207;SDS011;9737;59.466;18.036;2022-12-18T06:27:19;30.88;;;10.23;;
19207;SDS011;9737;59.466;18.036;2022-12-18T06:29:47;25.63;;;10.40;;
19207;SDS011;9737;59.466;18.036;2022-12-18T06:32:17;23.88;;;10.27;;
19207;SDS011;9737;59.466;18.036;2022-12-18T06:34:44;24.40;;;9.50;;
19207;SDS011;9737;59.466;18.036;2022-12-18T06:37:12;22.77;;;9.82;;
19207;SDS011;9737;59.466;18.036;2022-12-18T06:39:40;22.80;;;9.63;;
19207;SDS011;9737;59.466;18.036;2022-12-18T06:42:09;23.85;;;9.98;;
19207;SDS011;9737;59.466;18.036;2022-12-18T06:44:36;30.85;;;10.02;;
19207;SDS011;9737;59.466;18.036;2022-12-18T06:47:04;25.55;;;9.82;;
19207;SDS011;9737;59.466;18.036;2022-12-18T06:49:33;20.73;;;8.93;;
19207;SDS011;9737;59.466;18.036;2022-12-18T06:52:01;21.80;;;9.38;;
19207;SDS011;9737;59.466;18.036;2022-12-18T06:54:29;22.35;;;9.55;;
19207;SDS011;9737;59.466;18.036;2022-12-18T06:56:57;22.75;;;9.25;;
19207;SDS011;9737;59.466;18.036;2022-12-18T06:59:25;21.27;;;9.98;;
19207;SDS011;9737;59.466;18.036;2022-12-18T07:01:54;20.17;;;9.52;;
19207;SDS011;9737;59.466;18.036;2022-12-18T07:04:24;22.58;;;9.65;;
19207;SDS011;9737;59.466;18.036;2022-12-18T07:06:56;23.58;;;10.15;;
19207;SDS011;9737;59.466;18.036;2022-12-18T07:09:24;24.95;;;9.57;;
19207;SDS011;9737;59.466;18.036;2022-12-18T07:11:54;22.75;;;8.65;;
19207;SDS011;9737;59.466;18.036;2022-12-18T07:14:23;26.98;;;9.85;;
19207;SDS011;9737;59.466;18.036;2022-12-18T07:16:51;23.02;;;8.77;;
19207;SDS011;9737;59.466;18.036;2022-12-18T07:19:19;23.63;;;8.98;;
19207;SDS011;9737;59.466;18.036;2022-12-18T07:21:49;24.02;;;9.52;;
19207;SDS011;9737;59.466;18.036;2022-12-18T07:24:19;24.30;;;10.43;;
19207;SDS011;9737;59.466;18.036;2022-12-18T07:26:47;23.45;;;10.07;;
19207;SDS011;9737;59.466;18.036;2022-12-18T07:29:15;28.33;;;9.80;;
19207;SDS011;9737;59.466;18.036;2022-12-18T07:31:43;23.05;;;9.80;;
19207;SDS011;9737;59.466;18.036;2022-12-18T07:34:12;26.02;;;11.25;;
19207;SDS011;9737;59.466;18.036;2022-12-18T07:36:41;20.67;;;9.95;;
19207;SDS011;9737;59.466;18.036;2022-12-18T07:39:10;24.48;;;10.07;;
19207;SDS011;9737;59.466;18.036;2022-12-18T07:41:39;25.80;;;10.00;;
19207;SDS011;9737;59.466;18.036;2022-12-18T07:44:13;23.40;;;10.13;;
19207;SDS011;9737;59.466;18.036;2022-12-18T07:46:43;26.42;;;10.48;;
19207;SDS011;9737;59.466;18.036;2022-12-18T07:49:11;26.45;;;10.73;;
19207;SDS011;9737;59.466;18.036;2022-12-18T07:51:39;22.13;;;9.15;;
19207;SDS011;9737;59.466;18.036;2022-12-18T07:54:07;25.38;;;10.32;;
19207;SDS011;9737;59.466;18.036;2022-12-18T07:56:35;27.45;;;10.32;;
19207;SDS011;9737;59.466;18.036;2022-12-18T07:59:04;26.42;;;10.93;;
19207;SDS011;9737;59.466;18.036;2022-12-18T08:01:32;26.98;;;10.82;;
19207;SDS011;9737;59.466;18.036;2022-12-18T08:04:01;27.95;;;11.65;;
19207;SDS011;9737;59.466;18.036;2022-12-18T08:06:29;27.10;;;11.20;;
19207;SDS011;9737;59.466;18.036;2022-12-18T08:08:57;28.77;;;11.32;;
19207;SDS011;9737;59.466;18.036;2022-12-18T08:11:26;27.38;;;10.80;;
19207;SDS011;9737;59.466;18.036;2022-12-18T08:13:55;24.50;;;11.15;;
19207;SDS011;9737;59.466;18.036;2022-12-18T08:16:25;27.73;;;10.70;;
19207;SDS011;9737;59.466;18.036;2022-12-18T08:18:53;23.65;;;10.43;;
19207;SDS011;9737;59.466;18.036;2022-12-18T08:21:22;26.88;;;11.00;;
19207;SDS011;9737;59.466;18.036;2022-12-18T08:23:54;30.00;;;12.57;;
19207;SDS011;9737;59.466;18.036;2022-12-18T08:26:23;23.55;;;10.07;;
19207;SDS011;9737;59.466;18.036;2022-12-18T08:28:53;35.92;;;12.95;;
19207;SDS011;9737;59.466;18.036;2022-12-18T08:31:23;30.33;;;12.65;;
19207;SDS011;9737;59.466;18.036;2022-12-18T08:33:53;27.80;;;12.68;;
19207;SDS011;9737;59.466;18.036;2022-12-18T08:36:23;26.35;;;11.50;;
19207;SDS011;9737;59.466;18.036;2022-12-18T08:38:53;26.85;;;11.73;;
19207;SDS011;9737;59.466;18.036;2022-12-18T08:41:21;28.75;;;12.10;;
19207;SDS011;9737;59.466;18.036;2022-12-18T08:43:49;26.52;;;11.25;;
19207;SDS011;9737;59.466;18.036;2022-12-18T08:46:36;28.88;;;11.77;;
19207;SDS011;9737;59.466;18.036;2022-12-18T08:49:07;26.80;;;11.60;;
19207;SDS011;9737;59.466;18.036;2022-12-18T08:51:36;29.45;;;11.60;;
19207;SDS011;9737;59.466;18.036;2022-12-18T08:54:05;27.40;;;11.82;;
19207;SDS011;9737;59.466;18.036;2022-12-18T08:56:33;30.40;;;12.80;;
19207;SDS011;9737;59.466;18.036;2022-12-18T08:59:01;28.70;;;11.43;;
19207;SDS011;9737;59.466;18.036;2022-12-18T09:01:29;29.33;;;11.45;;
19207;SDS011;9737;59.466;18.036;2022-12-18T09:03:58;25.40;;;11.13;;
19207;SDS011;9737;59.466;18.036;2022-12-18T09:06:27;33.85;;;12.13;;
19207;SDS011;9737;59.466;18.036;2022-12-18T09:08:56;26.58;;;12.55;;
19207;SDS011;9737;59.466;18.036;2022-12-18T09:11:26;27.98;;;11.77;;
19207;SDS011;9737;59.466;18.036;2022-12-18T09:13:55;28.30;;;11.75;;
19207;SDS011;9737;59.466;18.036;2022-12-18T09:16:24;29.10;;;11.82;;
19207;SDS011;9737;59.466;18.036;2022-12-18T09:18:58;24.42;;;11.48;;
19207;SDS011;9737;59.466;18.036;2022-12-18T09:21:29;25.73;;;11.38;;
19207;SDS011;9737;59.466;18.036;2022-12-18T09:24:02;30.60;;;12.45;;
19207;SDS011;9737;59.466;18.036;2022-12-18T09:26:34;26.45;;;11.35;;
19207;SDS011;9737;59.466;18.036;2022-12-18T09:29:03;26.98;;;11.93;;
19207;SDS011;9737;59.466;18.036;2022-12-18T09:31:33;23.33;;;11.15;;
19207;SDS011;9737;59.466;18.036;2022-12-18T09:34:01;26.90;;;11.63;;
19207;SDS011;9737;59.466;18.036;2022-12-18T09:36:31;27.80;;;12.02;;
19207;SDS011;9737;59.466;18.036;2022-12-18T09:38:59;24.48;;;11.45;;
19207;SDS011;9737;59.466;18.036;2022-12-18T09:41:40;28.85;;;11.93;;
19207;SDS011;9737;59.466;18.036;2022-12-18T09:44:14;26.13;;;12.27;;
19207;SDS011;9737;59.466;18.036;2022-12-18T09:46:47;21.83;;;11.27;;
19207;SDS011;9737;59.466;18.036;2022-12-18T09:49:20;31.05;;;12.65;;
19207;SDS011;9737;59.466;18.036;2022-12-18T09:51:52;28.05;;;11.65;;
19207;SDS011;9737;59.466;18.036;2022-12-18T09:54:24;24.05;;;10.80;;
19207;SDS011;9737;59.466;18.036;2022-12-18T09:56:59;31.02;;;11.68;;
19207;SDS011;9737;59.466;18.036;2022-12-18T09:59:29;27.95;;;12.80;;
19207;SDS011;9737;59.466;18.036;2022-12-18T10:02:07;26.45;;;11.80;;
19207;SDS011;9737;59.466;18.036;2022-12-18T10:04:41;23.33;;;11.52;;
19207;SDS011;9737;59.466;18.036;2022-12-18T10:07:13;25.27;;;11.18;;
19207;SDS011;9737;59.466;18.036;2022-12-18T10:09:47;23.67;;;10.85;;
19207;SDS011;9737;59.466;18.036;2022-12-18T10:12:23;26.40;;;11.63;;
19207;SDS011;9737;59.466;18.036;2022-12-18T10:15:01;24.63;;;10.38;;
19207;SDS011;9737;59.466;18.036;2022-12-18T10:17:35;33.58;;;12.77;;
19207;SDS011;9737;59.466;18.036;2022-12-18T10:20:10;29.13;;;12.00;;
19207;SDS011;9737;59.466;18.036;2022-12-18T10:22:47;24.80;;;11.10;;
19207;SDS011;9737;59.466;18.036;2022-12-18T10:25:23;29.27;;;11.90;;
19207;SDS011;9737;59.466;18.036;2022-12-18T10:27:57;29.85;;;11.10;;
19207;SDS011;9737;59.466;18.036;2022-12-18T10:30:31;22.35;;;11.10;;
19207;SDS011;9737;59.466;18.036;2022-12-18T10:33:00;28.33;;;12.55;;
19207;SDS011;9737;59.466;18.036;2022-12-18T10:35:28;24.02;;;11.52;;
19207;SDS011;9737;59.466;18.036;2022-12-18T10:38:02;26.75;;;11.68;;
19207;SDS011;9737;59.466;18.036;2022-12-18T10:40:31;26.35;;;11.00;;
19207;SDS011;9737;59.466;18.036;2022-12-18T10:43:04;24.52;;;11.18;;
19207;SDS011;9737;59.466;18.036;2022-12-18T10:45:37;24.63;;;10.10;;
19207;SDS011;9737;59.466;18.036;2022-12-18T10:48:17;25.42;;;11.20;;
19207;SDS011;9737;59.466;18.036;2022-12-18T10:50:47;30.35;;;11.38;;
19207;SDS011;9737;59.466;18.036;2022-12-18T10:53:39;29.83;;;10.90;;
19207;SDS011;9737;59.466;18.036;2022-12-18T10:56:10;29.80;;;11.73;;
19207;SDS011;9737;59.466;18.036;2022-12-18T10:58:39;26.70;;;11.63;;
19207;SDS011;9737;59.466;18.036;2022-12-18T11:01:09;25.25;;;10.95;;
19207;SDS011;9737;59.466;18.036;2022-12-18T11:03:39;25.40;;;11.73;;
19207;SDS011;9737;59.466;18.036;2022-12-18T11:06:09;27.73;;;11.68;;
19207;SDS011;9737;59.466;18.036;2022-12-18T11:08:42;24.77;;;10.60;;
19207;SDS011;9737;59.466;18.036;2022-12-18T11:11:15;25.10;;;11.60;;
19207;SDS011;9737;59.466;18.036;2022-12-18T11:13:51;27.83;;;11.05;;
19207;SDS011;9737;59.466;18.036;2022-12-18T11:16:26;23.95;;;10.52;;
19207;SDS011;9737;59.466;18.036;2022-12-18T11:18:55;24.80;;;11.73;;
19207;SDS011;9737;59.466;18.036;2022-12-18T11:21:48;22.95;;;11.40;;
19207;SDS011;9737;59.466;18.036;2022-12-18T11:24:20;25.17;;;11.02;;
19207;SDS011;9737;59.466;18.036;2022-12-18T11:26:52;31.00;;;12.77;;
19207;SDS011;9737;59.466;18.036;2022-12-18T11:29:27;25.77;;;11.98;;
19207;SDS011;9737;59.466;18.036;2022-12-18T11:32:13;28.52;;;12.18;;
19207;SDS011;9737;59.466;18.036;2022-12-18T11:35:04;27.08;;;11.55;;
19207;SDS011;9737;59.466;18.036;2022-12-18T11:37:40;24.48;;;10.95;;
19207;SDS011;9737;59.466;18.036;2022-12-18T11:40:15;24.35;;;11.70;;
19207;SDS011;9737;59.466;18.036;2022-12-18T11:42:48;26.50;;;10.88;;
19207;SDS011;9737;59.466;18.036;2022-12-18T11:45:28;24.00;;;11.27;;
19207;SDS011;9737;59.466;18.036;2022-12-18T11:47:59;26.55;;;11.35;;
19207;SDS011;9737;59.466;18.036;2022-12-18T11:50:33;25.30;;;11.68;;
19207;SDS011;9737;59.466;18.036;2022-12-18T11:53:12;27.35;;;12.07;;
19207;SDS011;9737;59.466;18.036;2022-12-18T11:55:43;28.90;;;11.73;;
19207;SDS011;9737;59.466;18.036;2022-12-18T11:58:26;25.63;;;11.30;;
19207;SDS011;9737;59.466;18.036;2022-12-18T12:01:09;24.70;;;10.82;;
19207;SDS011;9737;59.466;18.036;2022-12-18T12:03:49;23.63;;;11.15;;
19207;SDS011;9737;59.466;18.036;2022-12-18T12:06:33;20.80;;;10.18;;
19207;SDS011;9737;59.466;18.036;2022-12-18T12:09:09;28.75;;;10.65;;
19207;SDS011;9737;59.466;18.036;2022-12-18T12:11:49;23.02;;;11.23;;
19207;SDS011;9737;59.466;18.036;2022-12-18T12:14:30;21.92;;;10.40;;
19207;SDS011;9737;59.466;18.036;2022-12-18T12:17:16;19.48;;;10.15;;
19207;SDS011;9737;59.466;18.036;2022-12-18T12:19:56;23.50;;;10.60;;
19207;SDS011;9737;59.466;18.036;2022-12-18T12:22:31;25.83;;;11.00;;
19207;SDS011;9737;59.466;18.036;2022-12-18T12:25:10;19.40;;;10.02;;
19207;SDS011;9737;59.466;18.036;2022-12-18T12:27:50;24.40;;;9.73;;
19207;SDS011;9737;59.466;18.036;2022-12-18T12:30:27;27.98;;;11.90;;
19207;SDS011;9737;59.466;18.036;2022-12-18T12:33:06;24.98;;;9.88;;
19207;SDS011;9737;59.466;18.036;2022-12-18T12:35:44;21.10;;;9.95;;
19207;SDS011;9737;59.466;18.036;2022-12-18T12:38:19;24.25;;;9.90;;
19207;SDS011;9737;59.466;18.036;2022-12-18T12:40:51;20.58;;;9.30;;
19207;SDS011;9737;59.466;18.036;2022-12-18T12:43:32;23.35;;;9.77;;
19207;SDS011;9737;59.466;18.036;2022-12-18T12:46:15;18.95;;;9.23;;
19207;SDS011;9737;59.466;18.036;2022-12-18T12:48:46;22.67;;;9.48;;
19207;SDS011;9737;59.466;18.036;2022-12-18T12:51:18;20.83;;;10.05;;
19207;SDS011;9737;59.466;18.036;2022-12-18T12:53:48;23.83;;;9.60;;
19207;SDS011;9737;59.466;18.036;2022-12-18T12:56:19;20.33;;;9.27;;
19207;SDS011;9737;59.466;18.036;2022-12-18T12:58:55;21.35;;;9.68;;
19207;SDS011;9737;59.466;18.036;2022-12-18T13:01:32;21.67;;;10.20;;
19207;SDS011;9737;59.466;18.036;2022-12-18T13:04:08;19.23;;;9.15;;
19207;SDS011;9737;59.466;18.036;2022-12-18T13:06:50;23.45;;;8.75;;
19207;SDS011;9737;59.466;18.036;2022-12-18T13:09:29;23.27;;;9.77;;
19207;SDS011;9737;59.466;18.036;2022-12-18T13:12:01;25.35;;;9.18;;
19207;SDS011;9737;59.466;18.036;2022-12-18T13:14:52;27.17;;;9.00;;
19207;SDS011;9737;59.466;18.036;2022-12-18T13:17:29;21.88;;;9.38;;
19207;SDS011;9737;59.466;18.036;2022-12-18T13:20:05;21.98;;;9.32;;
19207;SDS011;9737;59.466;18.036;2022-12-18T13:22:36;16.92;;;8.00;;
19207;SDS011;9737;59.466;18.036;2022-12-18T13:28:06;17.90;;;7.72;;
19207;SDS011;9737;59.466;18.036;2022-12-18T13:33:37;19.13;;;7.50;;
19207;SDS011;9737;59.466;18.036;2022-12-18T13:36:30;14.73;;;7.00;;
19207;SDS011;9737;59.466;18.036;2022-12-18T13:45:46;16.50;;;7.30;;
19207;SDS011;9737;59.466;18.036;2022-12-18T13:48:19;16.80;;;7.50;;
19207;SDS011;9737;59.466;18.036;2022-12-18T13:50:52;19.52;;;7.15;;
19207;SDS011;9737;59.466;18.036;2022-12-18T13:53:26;19.15;;;7.28;;
19207;SDS011;9737;59.466;18.036;2022-12-18T13:55:57;17.48;;;7.10;;
19207;SDS011;9737;59.466;18.036;2022-12-18T13:58:25;19.85;;;7.07;;
19207;SDS011;9737;59.466;18.036;2022-12-18T14:00:53;18.80;;;7.97;;
19207;SDS011;9737;59.466;18.036;2022-12-18T14:03:23;19.80;;;7.07;;
19207;SDS011;9737;59.466;18.036;2022-12-18T14:05:54;19.92;;;7.10;;
19207;SDS011;9737;59.466;18.036;2022-12-18T14:08:27;19.90;;;7.55;;
19207;SDS011;9737;59.466;18.036;2022-12-18T14:11:00;18.52;;;6.40;;
19207;SDS011;9737;59.466;18.036;2022-12-18T14:13:33;13.68;;;6.72;;
19207;SDS011;9737;59.466;18.036;2022-12-18T14:16:05;17.15;;;6.57;;
19207;SDS011;9737;59.466;18.036;2022-12-18T14:18:41;16.23;;;6.72;;
19207;SDS011;9737;59.466;18.036;2022-12-18T14:21:19;13.27;;;6.70;;
19207;SDS011;9737;59.466;18.036;2022-12-18T14:24:02;15.23;;;5.88;;
19207;SDS011;9737;59.466;18.036;2022-12-18T14:26:32;16.60;;;6.80;;
19207;SDS011;9737;59.466;18.036;2022-12-18T14:29:01;14.13;;;5.75;;
19207;SDS011;9737;59.466;18.036;2022-12-18T14:34:43;16.55;;;6.60;;
19207;SDS011;9737;59.466;18.036;2022-12-18T14:37:13;16.50;;;6.07;;
19207;SDS011;9737;59.466;18.036;2022-12-18T14:39:51;14.27;;;5.65;;
19207;SDS011;9737;59.466;18.036;2022-12-18T14:42:20;16.70;;;6.78;;
19207;SDS011;9737;59.466;18.036;2022-12-18T14:44:48;12.70;;;6.30;;
19207;SDS011;9737;59.466;18.036;2022-12-18T14:47:36;12.25;;;5.63;;
19207;SDS011;9737;59.466;18.036;2022-12-18T14:50:11;14.65;;;5.85;;
19207;SDS011;9737;59.466;18.036;2022-12-18T14:52:40;14.85;;;5.70;;
19207;SDS011;9737;59.466;18.036;2022-12-18T14:55:14;13.98;;;5.63;;
19207;SDS011;9737;59.466;18.036;2022-12-18T14:57:43;10.00;;;5.00;;
19207;SDS011;9737;59.466;18.036;2022-12-18T15:00:15;12.55;;;6.15;;
19207;SDS011;9737;59.466;18.036;2022-12-18T15:02:44;16.92;;;5.53;;
19207;SDS011;9737;59.466;18.036;2022-12-18T15:05:19;19.50;;;6.03;;
19207;SDS011;9737;59.466;18.036;2022-12-18T15:07:49;18.08;;;5.35;;